Time;durP1;ratioP1;P1;durP2;ratioP2;P2;SDS_P1;SDS_P2;PMS_P1;PMS_P2;Temp;Humidity;BMP_temperature;BMP_pressure;BME280_temperature;BME280_humidity;BME280_pressure;Samples;Min_cycle;Max_cycle;Signal;HPM_P1;HPM_P2
2021/12/06 00:00:24;;;;;;;27.60;18.30;;;3.00;1.00;;;;;;4912081;29;20265;-58
2021/12/06 00:02:55;;;;;;;24.37;17.33;;;3.00;1.00;;;;;;4940079;29;20198;-58
2021/12/06 00:05:25;;;;;;;20.70;16.53;;;3.00;1.00;;;;;;4945103;29;20241;-58
2021/12/06 00:07:52;;;;;;;21.07;16.80;;;3.00;1.00;;;;;;4944309;29;20570;-58
2021/12/06 00:10:19;;;;;;;23.50;18.17;;;3.00;1.00;;;;;;4944524;29;20930;-58
2021/12/06 00:12:47;;;;;;;26.47;18.30;;;3.00;1.00;;;;;;4943710;29;20222;-57
2021/12/06 00:15:14;;;;;;;25.80;19.60;;;2.90;1.00;;;;;;4943502;29;20196;-57
2021/12/06 00:17:41;;;;;;;29.97;20.57;;;2.90;1.00;;;;;;4926389;29;20561;-57
2021/12/06 00:20:11;;;;;;;27.83;20.07;;;2.90;1.00;;;;;;4942574;29;20195;-58
2021/12/06 00:22:39;;;;;;;24.03;18.30;;;2.90;1.00;;;;;;4941744;29;20257;-58
2021/12/06 00:25:09;;;;;;;25.87;18.77;;;3.00;5.40;;;;;;4942469;29;20200;-58
2021/12/06 00:27:39;;;;;;;28.40;18.20;;;3.00;49.70;;;;;;4940809;28;20219;-58
2021/12/06 00:30:10;;;;;;;29.67;19.30;;;3.00;71.00;;;;;;4930792;29;20626;-58
2021/12/06 00:32:40;;;;;;;26.10;19.57;;;3.00;36.30;;;;;;4925602;29;20254;-58
2021/12/06 00:35:11;;;;;;;26.57;20.87;;;3.00;1.00;;;;;;4942683;29;20223;-58
2021/12/06 00:37:45;;;;;;;28.80;20.70;;;3.00;1.00;;;;;;4925253;29;20230;-58
2021/12/06 00:40:13;;;;;;;37.40;21.17;;;3.00;1.00;;;;;;4931228;29;20206;-58
2021/12/06 00:42:40;;;;;;;27.53;21.03;;;2.90;1.00;;;;;;4941917;29;20604;-58
2021/12/06 00:45:08;;;;;;;28.97;20.77;;;2.90;1.00;;;;;;4924668;29;20196;-58
2021/12/06 00:47:35;;;;;;;31.43;20.70;;;2.90;1.00;;;;;;4942230;29;20688;-58
2021/12/06 00:50:05;;;;;;;30.47;22.13;;;2.80;1.00;;;;;;4924842;29;20196;-58
2021/12/06 00:52:32;;;;;;;30.87;22.30;;;2.80;1.00;;;;;;4938730;29;20831;-58
2021/12/06 00:54:59;;;;;;;28.57;21.90;;;2.90;15.90;;;;;;4922331;29;20240;-58
2021/12/06 00:57:27;;;;;;;29.80;21.07;;;2.90;99.90;;;;;;4925018;29;20259;-58
2021/12/06 00:59:54;;;;;;;28.70;21.17;;;2.90;99.90;;;;;;4922844;29;20318;-58
2021/12/06 01:02:21;;;;;;;30.87;21.07;;;3.00;99.90;;;;;;4924408;29;20656;-58
2021/12/06 01:04:48;;;;;;;27.40;21.13;;;3.00;99.90;;;;;;4907891;29;20235;-58
2021/12/06 01:07:16;;;;;;;33.87;19.70;;;3.00;99.90;;;;;;4939653;29;20219;-58
2021/12/06 01:09:43;;;;;;;22.70;18.50;;;3.00;99.90;;;;;;4922904;29;20192;-58
2021/12/06 01:12:11;;;;;;;23.90;17.47;;;3.00;99.90;;;;;;4923222;29;20215;-58
2021/12/06 01:14:38;;;;;;;25.40;16.80;;;3.00;99.90;;;;;;4939246;29;20215;-58
2021/12/06 01:17:07;;;;;;;23.33;17.30;;;3.10;99.90;;;;;;4941260;29;20217;-59
2021/12/06 01:19:37;;;;;;;20.63;15.50;;;3.10;99.90;;;;;;4915342;29;20690;-58
2021/12/06 01:22:29;;;;;;;21.73;16.43;;;3.10;99.90;;;;;;4921384;29;23125;-58
2021/12/06 01:25:02;;;;;;;22.37;14.47;;;3.10;26.10;;;;;;4926623;29;20206;-58
2021/12/06 01:30:17;;;;;;;17.30;13.50;;;3.10;1.00;;;;;;4908471;29;20214;-58
2021/12/06 01:33:05;;;;;;;23.03;14.20;;;3.00;1.00;;;;;;4929674;29;20684;-58
2021/12/06 01:41:22;;;;;;;21.67;14.70;;;2.80;1.00;;;;;;4922069;29;20226;-58
2021/12/06 01:44:17;;;;;;;22.43;14.83;;;2.70;1.00;;;;;;4922772;28;20612;-58
2021/12/06 01:46:58;;;;;;;19.23;14.23;;;2.50;1.00;;;;;;4911471;29;20208;-58
2021/12/06 01:49:29;;;;;;;21.83;14.03;;;2.40;1.00;;;;;;4940402;29;20207;-58
2021/12/06 01:51:59;;;;;;;23.67;14.77;;;2.30;1.00;;;;;;4918527;29;21003;-58
2021/12/06 01:54:28;;;;;;;26.80;16.43;;;2.30;99.90;;;;;;4938963;29;20207;-58
2021/12/06 01:56:56;;;;;;;22.50;15.53;;;2.40;99.90;;;;;;4939884;29;20226;-58
2021/12/06 01:59:25;;;;;;;21.33;15.17;;;2.30;99.90;;;;;;4922814;29;20195;-58
2021/12/06 02:01:52;;;;;;;22.43;15.63;;;2.20;99.90;;;;;;4920924;29;20226;-58
2021/12/06 02:04:22;;;;;;;20.63;14.53;;;2.10;99.90;;;;;;4923457;29;20648;-60
2021/12/06 02:06:49;;;;;;;22.20;15.00;;;2.00;99.90;;;;;;4923274;29;20203;-58
2021/12/06 02:09:18;;;;;;;22.63;16.10;;;1.90;99.90;;;;;;4923706;29;20203;-58
2021/12/06 02:11:46;;;;;;;22.37;15.40;;;1.90;1.00;;;;;;4928732;29;20215;-59
2021/12/06 02:19:38;;;;;;;23.77;16.53;;;1.80;1.00;;;;;;4922465;29;20207;-58
2021/12/06 02:22:09;;;;;;;21.00;15.63;;;1.70;1.00;;;;;;4937952;29;20654;-58
2021/12/06 02:24:38;;;;;;;20.87;15.80;;;1.70;1.00;;;;;;4923295;29;20194;-58
2021/12/06 02:27:09;;;;;;;26.77;16.90;;;1.60;1.00;;;;;;4915016;28;20213;-58
2021/12/06 02:29:37;;;;;;;24.80;17.77;;;1.50;1.00;;;;;;4922649;29;20258;-58
2021/12/06 02:32:09;;;;;;;22.17;16.50;;;1.60;1.00;;;;;;4924236;29;20207;-58
2021/12/06 02:34:40;;;;;;;22.97;16.83;;;1.50;1.00;;;;;;4922588;29;20209;-58
2021/12/06 02:37:09;;;;;;;24.43;17.00;;;1.40;1.00;;;;;;4928335;29;20202;-58
2021/12/06 02:39:38;;;;;;;31.50;20.10;;;1.50;1.00;;;;;;4920042;29;20227;-58
2021/12/06 02:42:08;;;;;;;32.00;21.13;;;1.50;2.20;;;;;;4924109;29;20241;-58
2021/12/06 02:44:35;;;;;;;40.40;23.93;;;1.50;99.90;;;;;;4923435;29;20208;-58
2021/12/06 02:47:03;;;;;;;38.20;22.27;;;1.50;99.90;;;;;;4938801;29;21289;-58
2021/12/06 02:49:30;;;;;;;32.60;21.73;;;1.50;99.90;;;;;;4922509;29;20206;-57
2021/12/06 02:51:57;;;;;;;36.27;20.87;;;1.60;1.00;;;;;;4939706;29;20599;-57
2021/12/06 02:54:26;;;;;;;37.93;21.60;;;1.50;1.00;;;;;;4933355;29;20652;-58
2021/12/06 02:57:17;;;;;;;27.60;18.63;;;1.50;99.90;;;;;;4927265;29;21789;-57
2021/12/06 02:59:45;;;;;;;30.10;17.93;;;1.50;1.00;;;;;;4938317;29;20196;-58
2021/12/06 03:02:17;;;;;;;36.70;23.13;;;1.60;1.00;;;;;;4921631;29;20292;-58
2021/12/06 03:04:45;;;;;;;24.93;18.17;;;1.60;1.00;;;;;;4921600;29;20262;-57
2021/12/06 03:07:19;;;;;;;26.00;18.80;;;1.60;1.00;;;;;;4937818;29;20191;-58
2021/12/06 03:09:51;;;;;;;25.13;17.33;;;1.60;1.00;;;;;;4927089;29;20666;-58
2021/12/06 03:12:22;;;;;;;25.27;17.27;;;1.60;1.00;;;;;;4941049;29;20259;-58
2021/12/06 03:14:55;;;;;;;27.23;17.63;;;1.60;1.00;;;;;;4923472;29;20214;-58
2021/12/06 03:17:28;;;;;;;25.40;16.63;;;1.50;1.00;;;;;;4923597;29;20204;-58
2021/12/06 03:19:57;;;;;;;23.10;16.67;;;1.50;99.90;;;;;;4922481;29;20621;-57
2021/12/06 03:22:26;;;;;;;23.77;16.13;;;1.30;99.90;;;;;;4927399;29;20714;-58
2021/12/06 03:24:54;;;;;;;22.23;16.37;;;1.20;99.90;;;;;;4906647;29;20823;-57
2021/12/06 03:27:24;;;;;;;25.17;17.60;;;1.20;99.90;;;;;;4924008;28;20693;-58
2021/12/06 03:29:54;;;;;;;27.20;16.73;;;1.10;99.90;;;;;;4908995;29;20203;-58
2021/12/06 03:32:22;;;;;;;25.33;16.83;;;1.00;99.90;;;;;;4928276;29;20199;-58
2021/12/06 03:34:50;;;;;;;35.20;22.33;;;1.00;99.90;;;;;;4926419;29;20223;-58
2021/12/06 03:37:17;;;;;;;28.03;17.83;;;0.90;99.90;;;;;;4926862;29;20395;-59
2021/12/06 03:39:47;;;;;;;18.80;14.80;;;0.80;99.90;;;;;;4918786;29;20634;-58
2021/12/06 03:42:24;;;;;;;22.00;14.77;;;0.70;99.90;;;;;;4943039;29;20539;-58
2021/12/06 03:44:53;;;;;;;21.00;14.17;;;0.60;99.90;;;;;;4924850;29;20265;-59
2021/12/06 03:47:27;;;;;;;22.70;15.10;;;0.60;99.90;;;;;;4927377;29;20288;-59
2021/12/06 03:49:56;;;;;;;21.17;16.50;;;0.50;99.90;;;;;;4931821;29;20242;-59
2021/12/06 03:52:23;;;;;;;26.17;17.13;;;0.50;1.00;;;;;;4909554;29;20306;-58
2021/12/06 03:54:51;;;;;;;28.37;18.63;;;0.40;1.00;;;;;;4936662;29;20229;-58
2021/12/06 03:57:19;;;;;;;25.20;17.33;;;0.40;1.00;;;;;;4914744;29;20753;-58
2021/12/06 03:59:48;;;;;;;26.27;16.93;;;0.40;1.00;;;;;;4910549;29;20197;-58
2021/12/06 04:02:16;;;;;;;20.33;16.27;;;0.40;99.90;;;;;;4932482;29;20282;-58
2021/12/06 04:04:44;;;;;;;25.33;17.87;;;0.50;99.90;;;;;;4931940;29;20322;-58
2021/12/06 04:07:12;;;;;;;27.53;17.20;;;0.50;1.00;;;;;;4924508;29;20202;-58
2021/12/06 04:09:40;;;;;;;27.93;19.03;;;0.60;1.00;;;;;;4926432;29;20262;-58
2021/12/06 04:12:09;;;;;;;27.80;19.87;;;0.60;1.00;;;;;;4923991;29;20202;-58
2021/12/06 04:14:37;;;;;;;24.40;17.33;;;0.60;99.90;;;;;;4927676;29;20218;-58
2021/12/06 04:17:05;;;;;;;27.80;18.17;;;0.60;99.90;;;;;;4926587;29;20202;-58
2021/12/06 04:19:33;;;;;;;22.00;17.73;;;0.60;99.90;;;;;;4926010;29;20237;-59
2021/12/06 04:22:00;;;;;;;22.10;17.03;;;0.60;99.90;;;;;;4926132;29;20262;-58
2021/12/06 04:24:29;;;;;;;27.00;18.87;;;0.60;99.90;;;;;;4916926;29;20567;-58
2021/12/06 04:26:58;;;;;;;23.53;17.30;;;0.60;99.90;;;;;;4915595;28;20206;-58
2021/12/06 04:29:26;;;;;;;29.93;20.27;;;0.60;99.90;;;;;;4900669;29;20554;-58
2021/12/06 04:31:55;;;;;;;31.27;20.80;;;0.60;99.90;;;;;;4937809;29;20564;-58
2021/12/06 04:34:24;;;;;;;29.53;20.83;;;0.60;99.90;;;;;;4926049;29;20243;-58
2021/12/06 04:36:51;;;;;;;38.03;22.47;;;0.60;99.90;;;;;;4943569;29;20872;-58
2021/12/06 04:39:20;;;;;;;34.97;22.83;;;0.50;1.00;;;;;;4931401;29;20736;-58
2021/12/06 04:41:49;;;;;;;32.67;22.27;;;0.40;1.00;;;;;;4930335;29;20677;-59
2021/12/06 04:44:18;;;;;;;31.83;23.93;;;0.30;1.00;;;;;;4939853;29;20253;-59
2021/12/06 04:46:46;;;;;;;31.97;24.07;;;0.30;1.00;;;;;;4924512;29;20200;-59
2021/12/06 04:49:13;;;;;;;36.93;24.27;;;0.20;1.00;;;;;;4924988;29;20223;-60
2021/12/06 04:51:45;;;;;;;33.43;22.67;;;0.20;1.00;;;;;;4923261;29;20298;-58
2021/12/06 04:54:16;;;;;;;31.87;22.00;;;0.20;1.00;;;;;;4925115;29;20267;-58
2021/12/06 04:56:50;;;;;;;29.37;21.60;;;0.20;1.00;;;;;;4923926;29;20207;-59
2021/12/06 04:59:29;;;;;;;31.00;21.63;;;0.10;1.00;;;;;;4921562;29;20198;-58
2021/12/06 05:01:59;;;;;;;31.97;19.47;;;0.00;1.00;;;;;;4925878;29;20604;-59
2021/12/06 05:04:30;;;;;;;27.70;21.17;;;0.00;1.00;;;;;;4929375;29;20346;-59
2021/12/06 05:07:08;;;;;;;37.23;23.70;;;-0.10;1.00;;;;;;4907370;29;20199;-58
2021/12/06 05:09:38;;;;;;;46.60;32.50;;;-0.10;1.00;;;;;;4915827;29;20187;-58
2021/12/06 05:12:09;;;;;;;35.33;27.17;;;-0.10;59.70;;;;;;4938290;29;20330;-58
2021/12/06 05:14:36;;;;;;;36.20;23.60;;;-0.20;99.90;;;;;;4929560;29;20228;-58
2021/12/06 05:17:04;;;;;;;34.10;25.10;;;-0.20;93.60;;;;;;4924184;29;20337;-58
2021/12/06 05:19:31;;;;;;;25.20;19.60;;;-0.30;1.00;;;;;;4941711;29;20262;-58
2021/12/06 05:22:05;;;;;;;29.53;17.40;;;-0.30;90.80;;;;;;4922414;29;20263;-59
2021/12/06 05:24:33;;;;;;;37.33;22.50;;;-0.30;99.90;;;;;;4941137;29;20230;-58
2021/12/06 05:27:00;;;;;;;38.57;26.13;;;-0.30;1.00;;;;;;4906957;28;20199;-58
2021/12/06 05:29:30;;;;;;;30.67;20.17;;;-0.40;1.00;;;;;;4914465;29;20257;-59
2021/12/06 05:31:59;;;;;;;21.27;16.50;;;-0.50;1.00;;;;;;4902973;29;20214;-59
2021/12/06 05:34:39;;;;;;;28.00;17.80;;;-0.50;1.00;;;;;;4922746;29;20223;-59
2021/12/06 05:37:14;;;;;;;27.07;18.40;;;-0.50;1.00;;;;;;4924706;29;20288;-58
2021/12/06 05:39:41;;;;;;;31.80;18.97;;;-0.60;1.00;;;;;;4940097;29;20187;-58
2021/12/06 05:42:12;;;;;;;34.53;21.93;;;-0.50;99.90;;;;;;4939107;29;20198;-58
2021/12/06 05:44:41;;;;;;;36.63;25.43;;;-0.50;99.90;;;;;;4940572;29;20203;-58
2021/12/06 05:47:09;;;;;;;37.27;23.40;;;-0.50;99.90;;;;;;4924252;29;20271;-58
2021/12/06 05:49:37;;;;;;;36.97;24.10;;;-0.40;1.00;;;;;;4924479;29;20605;-58
2021/12/06 05:52:05;;;;;;;38.93;24.87;;;-0.30;1.00;;;;;;4938415;28;20253;-58
2021/12/06 05:54:32;;;;;;;35.73;25.17;;;-0.40;99.90;;;;;;4942386;29;20226;-58
2021/12/06 05:57:00;;;;;;;41.37;24.27;;;-0.40;99.90;;;;;;4922937;29;20666;-58
2021/12/06 05:59:28;;;;;;;33.73;21.67;;;-0.40;99.90;;;;;;4920181;29;20196;-59
2021/12/06 06:01:55;;;;;;;39.13;23.57;;;-0.50;99.90;;;;;;4923640;29;20207;-58
2021/12/06 06:04:23;;;;;;;39.00;23.00;;;-0.50;1.00;;;;;;4941250;29;20727;-58
2021/12/06 06:06:50;;;;;;;34.70;23.37;;;-0.40;1.00;;;;;;4938774;29;20199;-58
2021/12/06 06:09:17;;;;;;;35.20;21.63;;;-0.50;1.00;;;;;;4917530;29;20323;-58
2021/12/06 06:11:44;;;;;;;40.60;22.73;;;-0.50;1.00;;;;;;4938520;29;20259;-58
2021/12/06 06:14:11;;;;;;;39.50;23.00;;;-0.40;99.90;;;;;;4922847;29;20608;-58
2021/12/06 06:16:47;;;;;;;36.37;22.03;;;-0.40;99.90;;;;;;4919880;29;20199;-58
2021/12/06 06:19:17;;;;;;;36.20;22.60;;;-0.50;99.90;;;;;;4927892;29;20194;-58
2021/12/06 06:21:44;;;;;;;44.10;23.07;;;-0.50;99.90;;;;;;4944936;29;20199;-58
2021/12/06 06:24:11;;;;;;;38.10;23.47;;;-0.50;99.90;;;;;;4917536;29;20271;-58
2021/12/06 06:26:38;;;;;;;33.20;21.67;;;-0.50;99.90;;;;;;4937872;29;20250;-58
2021/12/06 06:29:06;;;;;;;37.03;22.40;;;-0.50;99.90;;;;;;4921574;29;20235;-59
2021/12/06 06:31:33;;;;;;;36.03;22.93;;;-0.50;1.00;;;;;;4937908;29;20207;-58
2021/12/06 06:34:00;;;;;;;40.33;23.90;;;-0.50;1.00;;;;;;4940598;29;20295;-58
2021/12/06 06:36:27;;;;;;;42.23;24.90;;;-0.50;1.00;;;;;;4939801;29;20287;-58
2021/12/06 06:38:54;;;;;;;43.07;27.47;;;-0.30;1.00;;;;;;4940615;29;20203;-58
2021/12/06 06:41:21;;;;;;;47.53;27.37;;;-0.20;1.00;;;;;;4921578;29;20568;-58
2021/12/06 06:43:49;;;;;;;48.50;25.60;;;-0.20;1.00;;;;;;4922311;29;20211;-58
2021/12/06 06:46:16;;;;;;;45.10;25.67;;;-0.10;1.00;;;;;;4923471;29;20207;-58
2021/12/06 06:48:43;;;;;;;45.23;26.70;;;-0.10;1.00;;;;;;4939632;29;20314;-58
2021/12/06 06:51:10;;;;;;;43.80;26.33;;;-0.10;1.00;;;;;;4939063;29;20247;-59
2021/12/06 06:53:37;;;;;;;52.30;30.37;;;0.10;1.00;;;;;;4938110;29;20559;-58
2021/12/06 06:56:04;;;;;;;59.53;35.00;;;0.10;1.00;;;;;;4938424;28;20714;-58
2021/12/06 06:58:31;;;;;;;52.90;30.83;;;0.10;99.90;;;;;;4922534;29;20254;-59
2021/12/06 07:00:58;;;;;;;49.00;31.10;;;0.20;1.00;;;;;;4932027;29;20275;-58
2021/12/06 07:03:31;;;;;;;46.33;27.83;;;0.20;1.00;;;;;;4930743;29;20230;-59
2021/12/06 07:06:01;;;;;;;46.03;27.00;;;0.20;1.00;;;;;;4927892;29;20202;-58
2021/12/06 07:08:28;;;;;;;45.53;27.57;;;0.20;99.90;;;;;;4926484;29;20207;-58
2021/12/06 07:10:57;;;;;;;46.40;28.23;;;0.30;1.00;;;;;;4930833;29;20263;-58
2021/12/06 07:13:26;;;;;;;44.97;27.83;;;0.40;75.50;;;;;;4924061;29;20213;-58
2021/12/06 07:15:54;;;;;;;40.43;28.33;;;0.40;1.00;;;;;;4941731;29;20703;-58
2021/12/06 07:18:21;;;;;;;40.37;28.50;;;0.50;1.00;;;;;;4922946;29;20219;-59
2021/12/06 07:20:48;;;;;;;39.33;26.93;;;0.60;1.00;;;;;;4942316;29;20290;-58
2021/12/06 07:23:15;;;;;;;40.43;27.50;;;0.70;1.00;;;;;;4943508;29;20201;-59
2021/12/06 07:25:43;;;;;;;42.67;26.67;;;0.70;1.00;;;;;;4925976;29;20198;-58
2021/12/06 07:28:10;;;;;;;44.33;29.23;;;0.80;99.90;;;;;;4929112;29;20202;-58
2021/12/06 07:30:37;;;;;;;47.83;31.50;;;0.80;1.00;;;;;;4943104;28;20206;-58
2021/12/06 07:33:04;;;;;;;54.77;34.40;;;0.80;1.00;;;;;;4941482;29;20204;-59
2021/12/06 07:35:32;;;;;;;52.30;32.97;;;0.80;1.00;;;;;;4925825;29;20874;-59
2021/12/06 07:38:02;;;;;;;48.00;30.53;;;0.80;1.00;;;;;;4927191;29;20682;-59
2021/12/06 07:40:31;;;;;;;60.43;32.03;;;0.90;1.00;;;;;;4931366;29;20674;-58
2021/12/06 07:42:58;;;;;;;57.30;31.63;;;1.00;12.90;;;;;;4939891;28;20227;-58
2021/12/06 07:45:26;;;;;;;53.03;28.50;;;1.00;99.90;;;;;;4941085;29;20227;-59
2021/12/06 07:47:53;;;;;;;40.20;24.33;;;0.90;99.90;;;;;;4930102;29;20204;-59
2021/12/06 07:50:21;;;;;;;42.10;30.90;;;0.60;1.00;;;;;;4942937;29;20340;-59
2021/12/06 07:52:50;;;;;;;57.97;37.53;;;0.50;99.90;;;;;;4941085;28;20229;-59
2021/12/06 07:55:21;;;;;;;47.93;30.97;;;0.30;1.00;;;;;;4923273;29;20314;-58
2021/12/06 07:57:48;;;;;;;42.10;28.13;;;0.20;1.00;;;;;;4935760;28;20242;-59
2021/12/06 08:00:23;;;;;;;34.27;24.73;;;0.40;99.90;;;;;;4940005;29;20251;-59
2021/12/06 08:02:50;;;;;;;34.17;26.10;;;0.50;1.00;;;;;;4915557;29;20195;-59
2021/12/06 08:05:30;;;;;;;37.97;26.17;;;0.50;99.90;;;;;;4929722;29;20285;-59
2021/12/06 08:08:17;;;;;;;50.90;32.57;;;0.50;99.90;;;;;;4913530;28;20204;-59
2021/12/06 08:10:49;;;;;;;48.83;30.03;;;0.60;99.90;;;;;;4940863;29;20203;-59
2021/12/06 08:13:20;;;;;;;45.83;30.20;;;0.60;1.00;;;;;;4926045;29;20203;-59
2021/12/06 08:15:48;;;;;;;31.47;22.83;;;0.70;99.90;;;;;;4941256;28;20223;-59
2021/12/06 08:18:15;;;;;;;39.70;23.90;;;0.80;1.00;;;;;;4941077;29;20196;-59
2021/12/06 08:20:43;;;;;;;39.63;24.97;;;0.70;99.90;;;;;;4923532;29;20234;-59
2021/12/06 08:23:12;;;;;;;57.80;20.53;;;0.70;99.90;;;;;;4940757;28;20199;-59
2021/12/06 08:25:44;;;;;;;45.20;19.23;;;0.40;99.90;;;;;;4940997;29;20199;-59
2021/12/06 08:28:11;;;;;;;99.33;19.53;;;0.30;1.00;;;;;;4937889;28;20203;-59
2021/12/06 08:30:38;;;;;;;79.67;19.27;;;0.40;1.00;;;;;;4939681;28;20207;-59
2021/12/06 08:33:06;;;;;;;100.33;20.77;;;0.30;99.90;;;;;;4924662;29;20211;-59
2021/12/06 08:35:37;;;;;;;116.73;20.73;;;0.30;1.00;;;;;;4939824;29;20290;-59
2021/12/06 08:38:06;;;;;;;94.47;20.57;;;0.30;1.00;;;;;;4937990;29;20203;-59
2021/12/06 08:40:33;;;;;;;134.57;21.10;;;0.40;99.90;;;;;;4924859;29;20246;-59
2021/12/06 08:43:01;;;;;;;172.13;24.23;;;0.40;1.00;;;;;;4938218;29;20289;-59
2021/12/06 08:45:29;;;;;;;195.73;23.03;;;0.50;1.00;;;;;;4920767;29;20265;-59
2021/12/06 08:47:57;;;;;;;137.60;21.73;;;0.60;1.00;;;;;;4924040;29;20203;-59
2021/12/06 08:50:26;;;;;;;110.70;22.33;;;0.60;1.00;;;;;;4940987;29;20238;-59
2021/12/06 08:52:54;;;;;;;70.60;21.17;;;0.70;1.00;;;;;;4940536;28;20253;-59
2021/12/06 08:55:23;;;;;;;66.53;21.83;;;0.80;1.00;;;;;;4924039;29;20685;-59
2021/12/06 08:57:50;;;;;;;48.03;22.63;;;1.10;1.00;;;;;;4926143;29;20751;-59
2021/12/06 09:00:21;;;;;;;71.17;25.30;;;1.50;1.00;;;;;;4928370;29;20310;-59
2021/12/06 09:02:48;;;;;;;68.17;23.90;;;1.90;99.90;;;;;;4919194;29;20199;-59
2021/12/06 09:05:26;;;;;;;50.10;23.00;;;1.90;90.80;;;;;;4939050;29;20321;-59
2021/12/06 09:07:54;;;;;;;28.87;19.77;;;1.70;1.00;;;;;;4940220;29;20191;-59
2021/12/06 09:10:21;;;;;;;23.60;18.23;;;2.00;1.00;;;;;;4924518;29;20204;-59
2021/12/06 09:12:49;;;;;;;25.50;17.30;;;2.30;1.00;;;;;;4940838;28;20198;-59
2021/12/06 09:15:19;;;;;;;45.00;21.70;;;2.80;1.00;;;;;;4939064;28;20281;-59
2021/12/06 09:17:49;;;;;;;51.17;20.67;;;3.00;1.00;;;;;;4940325;29;20183;-59
2021/12/06 09:20:18;;;;;;;70.93;21.73;;;3.50;1.00;;;;;;4939054;29;20631;-59
2021/12/06 09:22:47;;;;;;;46.57;20.00;;;4.20;99.90;;;;;;4922931;29;20234;-59
2021/12/06 09:25:15;;;;;;;93.37;19.27;;;5.00;1.00;;;;;;4940070;28;20277;-59
2021/12/06 09:27:43;;;;;;;37.73;17.97;;;5.60;99.90;;;;;;4940087;28;20220;-59
2021/12/06 09:30:14;;;;;;;117.83;16.13;;;5.90;99.90;;;;;;4935400;29;20225;-59
2021/12/06 09:32:41;;;;;;;76.37;14.97;;;5.70;1.00;;;;;;4925376;29;20199;-59
2021/12/06 09:35:13;;;;;;;62.90;14.43;;;5.50;99.90;;;;;;4940099;29;20202;-59
2021/12/06 09:37:40;;;;;;;90.17;19.00;;;5.20;99.90;;;;;;4936651;29;20243;-59
2021/12/06 09:40:08;;;;;;;68.53;13.50;;;5.10;99.90;;;;;;4922676;29;20983;-58
2021/12/06 09:42:37;;;;;;;66.53;15.20;;;5.10;1.00;;;;;;4936230;28;20218;-59
2021/12/06 09:45:13;;;;;;;62.80;16.00;;;5.30;1.00;;;;;;4939755;28;20203;-59
2021/12/06 09:47:40;;;;;;;57.67;16.10;;;5.30;99.90;;;;;;4940934;29;20224;-59
2021/12/06 09:50:08;;;;;;;72.53;18.27;;;5.10;99.90;;;;;;4921165;29;20211;-59
2021/12/06 09:52:35;;;;;;;67.03;17.17;;;4.90;1.00;;;;;;4941343;29;20243;-59
2021/12/06 09:55:03;;;;;;;66.77;17.17;;;4.60;1.00;;;;;;4940110;29;20196;-59
2021/12/06 09:57:30;;;;;;;43.27;16.33;;;4.50;1.00;;;;;;4922274;29;20332;-59
2021/12/06 09:59:57;;;;;;;74.17;16.40;;;4.40;1.00;;;;;;4923924;29;20196;-59
2021/12/06 10:02:26;;;;;;;65.77;15.30;;;4.50;1.00;;;;;;4920789;29;20249;-59
2021/12/06 10:04:55;;;;;;;58.70;14.03;;;4.50;1.00;;;;;;4936942;29;20246;-59
2021/12/06 10:07:26;;;;;;;56.47;15.00;;;4.40;1.00;;;;;;4922649;29;20205;-59
2021/12/06 10:09:54;;;;;;;68.90;17.70;;;4.70;90.90;;;;;;4939252;28;20222;-59
2021/12/06 10:12:23;;;;;;;57.93;15.93;;;4.80;67.50;;;;;;4937853;28;20203;-59
2021/12/06 10:14:50;;;;;;;56.13;18.23;;;5.30;1.00;;;;;;4924977;29;20261;-59
2021/12/06 10:17:19;;;;;;;38.43;19.47;;;6.00;1.00;;;;;;4937251;29;20238;-59
2021/12/06 10:19:47;;;;;;;57.33;18.97;;;6.70;1.00;;;;;;4938093;29;20202;-59
2021/12/06 10:22:15;;;;;;;36.67;17.40;;;7.40;50.90;;;;;;4937093;29;20274;-59
2021/12/06 10:24:54;;;;;;;52.87;17.37;;;7.70;1.00;;;;;;4937192;29;20226;-59
2021/12/06 10:27:21;;;;;;;82.07;18.33;;;7.10;1.00;;;;;;4935725;28;20199;-59
2021/12/06 10:29:54;;;;;;;29.43;17.47;;;6.60;1.00;;;;;;4936456;29;20202;-59
2021/12/06 10:32:24;;;;;;;32.43;16.57;;;6.80;99.90;;;;;;4938378;29;20278;-59
2021/12/06 10:34:59;;;;;;;28.27;16.87;;;7.70;1.00;;;;;;4939771;28;20235;-59
2021/12/06 10:37:51;;;;;;;35.07;18.77;;;8.10;1.00;;;;;;4939739;28;20757;-59
2021/12/06 10:40:26;;;;;;;36.47;20.83;;;8.10;1.00;;;;;;4942588;28;20203;-59
2021/12/06 10:42:55;;;;;;;33.47;19.43;;;8.00;1.00;;;;;;4928957;29;20218;-59
2021/12/06 10:45:28;;;;;;;29.17;18.93;;;8.10;1.00;;;;;;4930823;29;20206;-59
2021/12/06 10:48:15;;;;;;;27.47;17.33;;;9.60;1.00;;;;;;4944382;29;20281;-59
2021/12/06 10:50:51;;;;;;;24.03;15.27;;;12.10;1.00;;;;;;4943098;29;20229;-59
2021/12/06 10:53:23;;;;;;;21.90;13.02;;;15.40;99.90;;;;;;4942009;29;20238;-59
2021/12/06 10:55:52;;;;;;;19.42;13.10;;;16.90;99.90;;;;;;4943596;29;20709;-58
2021/12/06 10:58:22;;;;;;;16.60;12.43;;;17.70;99.90;;;;;;4942573;28;20508;-58
2021/12/06 11:01:06;;;;;;;18.08;12.80;;;18.10;99.90;;;;;;4925886;29;20734;-58
2021/12/06 11:03:36;;;;;;;16.50;11.93;;;18.10;99.90;;;;;;4915610;29;20227;-58
2021/12/06 11:06:10;;;;;;;14.00;10.32;;;18.60;99.90;;;;;;4917727;29;20301;-60
2021/12/06 11:08:40;;;;;;;7.78;6.05;;;18.80;99.90;;;;;;4940461;28;20195;-60
2021/12/06 11:11:20;;;;;;;8.15;6.97;;;18.50;99.90;;;;;;4943741;29;20250;-60
2021/12/06 11:13:50;;;;;;;10.25;8.75;;;18.20;99.90;;;;;;4942909;29;20663;-60
2021/12/06 11:16:23;;;;;;;12.25;9.23;;;16.50;99.90;;;;;;4939083;29;20234;-59
2021/12/06 11:18:58;;;;;;;9.75;8.15;;;15.70;99.90;;;;;;4933688;28;20199;-59
2021/12/06 11:21:25;;;;;;;11.02;7.88;;;15.80;99.90;;;;;;4926622;29;20203;-59
2021/12/06 11:23:59;;;;;;;7.22;5.53;;;16.40;99.90;;;;;;4931696;29;20622;-60
2021/12/06 11:26:26;;;;;;;5.43;4.90;;;17.00;99.90;;;;;;4942230;28;20202;-57
2021/12/06 11:28:54;;;;;;;9.43;5.75;;;16.70;99.90;;;;;;4946655;28;20230;-57
2021/12/06 11:31:21;;;;;;;8.63;6.40;;;15.40;99.90;;;;;;4942694;29;20539;-58
2021/12/06 11:34:00;;;;;;;7.45;6.18;;;13.80;99.90;;;;;;4944256;29;20818;-58
2021/12/06 11:36:30;;;;;;;8.88;7.15;;;13.60;99.90;;;;;;4924380;29;20246;-58
2021/12/06 11:39:13;;;;;;;7.50;6.70;;;14.50;99.90;;;;;;4943117;29;20191;-58
2021/12/06 11:41:43;;;;;;;7.07;6.13;;;15.30;99.90;;;;;;4942657;29;20600;-58
2021/12/06 11:44:35;;;;;;;7.35;5.90;;;15.30;99.90;;;;;;4942507;29;20673;-58
2021/12/06 11:47:02;;;;;;;6.68;5.50;;;15.10;99.90;;;;;;4926155;29;20695;-58
2021/12/06 11:49:39;;;;;;;7.28;5.55;;;13.90;99.90;;;;;;4942480;28;20730;-58
2021/12/06 11:52:10;;;;;;;7.50;6.15;;;13.60;99.90;;;;;;4909655;29;20294;-58
2021/12/06 11:54:51;;;;;;;7.40;6.05;;;13.00;99.90;;;;;;4943942;28;20246;-58
2021/12/06 11:57:32;;;;;;;7.50;6.15;;;13.70;99.90;;;;;;4939118;29;20214;-58
2021/12/06 12:00:05;;;;;;;7.55;5.95;;;13.90;99.90;;;;;;4943976;29;20258;-58
2021/12/06 12:02:41;;;;;;;7.60;5.72;;;14.70;99.90;;;;;;4923957;29;20202;-58
2021/12/06 12:05:26;;;;;;;7.40;6.63;;;15.30;99.90;;;;;;4943426;28;20390;-58
2021/12/06 12:08:07;;;;;;;9.32;6.63;;;15.20;99.90;;;;;;4932030;28;20199;-58
2021/12/06 12:10:46;;;;;;;8.52;6.85;;;13.50;99.90;;;;;;4937446;28;20339;-59
2021/12/06 12:13:28;;;;;;;6.70;5.72;;;12.40;99.90;;;;;;4930552;29;20230;-59
2021/12/06 12:15:59;;;;;;;6.55;4.55;;;13.20;99.90;;;;;;4925783;29;20693;-58
2021/12/06 12:18:26;;;;;;;7.75;5.45;;;13.20;99.90;;;;;;4908889;29;20321;-58
2021/12/06 12:20:55;;;;;;;6.35;5.40;;;13.30;99.90;;;;;;4923608;29;20199;-58
2021/12/06 12:23:24;;;;;;;7.13;5.82;;;13.80;99.90;;;;;;4924450;29;20630;-59
2021/12/06 12:26:03;;;;;;;6.88;6.03;;;14.00;99.90;;;;;;4928059;29;20199;-59
2021/12/06 12:28:38;;;;;;;8.30;5.55;;;14.20;99.90;;;;;;4922287;29;20203;-59
2021/12/06 12:31:09;;;;;;;6.27;5.67;;;13.00;99.90;;;;;;4940679;28;20194;-59
2021/12/06 12:33:37;;;;;;;8.33;5.60;;;12.00;99.90;;;;;;4928561;29;20250;-58
2021/12/06 12:36:12;;;;;;;6.63;5.87;;;11.60;99.90;;;;;;4941269;29;20900;-59
2021/12/06 12:38:43;;;;;;;7.70;5.73;;;11.50;99.90;;;;;;4942935;29;20218;-58
2021/12/06 12:41:13;;;;;;;7.67;5.43;;;11.80;99.90;;;;;;4939282;28;20195;-58
2021/12/06 12:43:54;;;;;;;5.97;4.80;;;11.50;99.90;;;;;;4941103;29;20722;-59
2021/12/06 12:46:33;;;;;;;6.70;6.00;;;12.40;99.90;;;;;;4942574;29;20262;-59
2021/12/06 12:49:03;;;;;;;7.03;6.20;;;11.40;99.90;;;;;;4942466;29;20283;-59
2021/12/06 12:51:43;;;;;;;6.20;5.60;;;10.40;99.90;;;;;;4910323;29;20198;-59
2021/12/06 12:54:15;;;;;;;6.80;5.67;;;9.90;99.90;;;;;;4941711;29;20730;-58
2021/12/06 12:56:55;;;;;;;8.70;6.10;;;9.10;1.00;;;;;;4939755;29;20266;-59
2021/12/06 12:59:27;;;;;;;7.50;6.70;;;8.60;1.00;;;;;;4913288;29;20199;-59
2021/12/06 13:02:10;;;;;;;7.47;6.70;;;8.10;3.20;;;;;;4916618;29;21012;-58
2021/12/06 13:04:59;;;;;;;8.13;6.00;;;7.40;99.50;;;;;;4940727;28;20233;-58
2021/12/06 13:07:55;;;;;;;7.83;6.70;;;7.10;99.90;;;;;;4928646;29;20274;-58
2021/12/06 13:10:36;;;;;;;7.97;6.87;;;6.60;99.90;;;;;;4925409;29;20207;-58